Main page
METAR-TAF:

METAR-TAF

Airports :

Stockholm-Arlanda, Sweden

Stockholm Arlanda Airport

latitude: 59-39N, longitude: 017-57E, elevation: 38 m

Current weather observation

The report was made 33 minutes ago, at 08:20 UTC
Wind 13 kt from the Northwest
Temperature 5°C
Humidity 48%
Pressure 1019 hPa
Visibility 10 km or more
Scattered clouds at a height of 4600 ft

METAR: ESSA 300820Z 31013KT 9999 SCT046 05/M05 Q1019 R01L/0///95 R08/0///95 R01R/0///95 NOSIG

Time: 10:53 (08:53 UTC)

Forecast

The report was made 3 hours and 23 minutes ago, at 05:30 UTC
Forecast valid from 30 at 06 UTC to 01 at 06 UTC
Wind 8 kt from the West
Visibility 10 km or more
Few clouds at a height of 4000 ft

TAF: ESSA 300530Z 3006/0106 28008KT 9999 FEW040

Weather observations and forecasts of more than 4000 airports (METAR and TAF reports).

The available stations are represented by yellow and red dots on the map.

Hover mouse over dot to see the name of the station.

Then click to see weather observations and forecasts.

To change the map : click on the green buttons with a black cross to zoom in, on the green button with a dash to zoom out, or on the green arrows for adjacent maps.


METAR-TAF: